createdAt,value
2019-05-17T00:00:47.456Z,101070.48
2019-05-17T00:03:18.671Z,101066.92
2019-05-17T00:05:48.048Z,101062.38
2019-05-17T00:08:30.837Z,101063.98
2019-05-17T00:10:48.337Z,101053.72
2019-05-17T00:13:17.609Z,101053.61
2019-05-17T00:15:47.447Z,101046.08
2019-05-17T00:18:17.276Z,101046.50
2019-05-17T00:20:47.657Z,101037.91
2019-05-17T00:23:17.489Z,101030.92
2019-05-17T00:25:48.425Z,101028.50
2019-05-17T00:28:17.697Z,101024.53
2019-05-17T00:30:47.080Z,101015.94
2019-05-17T00:33:16.983Z,101008.05
2019-05-17T00:35:46.996Z,101011.96
2019-05-17T00:38:16.990Z,101005.21
2019-05-17T00:40:47.049Z,101001.45
2019-05-17T00:43:17.010Z,101000.89
2019-05-17T00:45:46.924Z,100998.52
2019-05-17T00:48:17.387Z,100996.15
2019-05-17T00:50:53.340Z,100995.73
2019-05-17T00:53:17.700Z,100994.20
2019-05-17T00:55:48.518Z,100993.08
2019-05-17T00:58:17.790Z,100988.14
2019-05-17T01:00:47.944Z,100995.87
2019-05-17T01:03:17.404Z,100988.84
2019-05-17T01:05:47.361Z,100986.58
2019-05-17T01:08:17.433Z,100987.78
2019-05-17T01:10:47.375Z,100985.44
2019-05-17T01:13:17.477Z,100977.05
2019-05-17T01:15:47.541Z,100983.23
2019-05-17T01:18:16.868Z,100978.52
2019-05-17T01:20:47.424Z,100972.75
2019-05-17T01:23:17.987Z,100971.69
2019-05-17T01:25:48.156Z,100963.04
2019-05-17T01:28:17.579Z,100959.14
2019-05-17T01:30:46.851Z,100957.94
2019-05-17T01:33:17.343Z,100954.34
2019-05-17T01:35:46.779Z,100953.56
2019-05-17T01:38:17.770Z,100948.46
2019-05-17T01:40:47.272Z,100948.82
2019-05-17T01:43:16.767Z,100946.39
2019-05-17T01:45:48.001Z,100940.88
2019-05-17T01:48:17.100Z,100944.08
2019-05-17T01:50:46.582Z,100936.91
2019-05-17T01:53:16.622Z,100944.72
2019-05-17T01:55:46.667Z,100942.13
2019-05-17T01:58:17.271Z,100936.64
2019-05-17T02:00:46.691Z,100933.91
2019-05-17T02:03:17.383Z,100930.28
2019-05-17T02:05:47.352Z,100935.11
2019-05-17T02:08:17.159Z,100929.59
2019-05-17T02:10:47.673Z,100923.17
2019-05-17T02:13:16.995Z,100923.09
2019-05-17T02:15:46.973Z,100925.04
2019-05-17T02:18:17.357Z,100920.33
2019-05-17T02:20:46.806Z,100924.76
2019-05-17T02:23:17.429Z,100926.02
2019-05-17T02:25:47.933Z,100924.09
2019-05-17T02:28:17.215Z,100921.78
2019-05-17T02:30:46.601Z,100916.34
2019-05-17T02:33:15.871Z,100915.84
2019-05-17T02:35:45.259Z,100909.30
2019-05-17T02:38:14.548Z,100914.28
2019-05-17T02:40:43.848Z,100903.89
2019-05-17T02:43:13.445Z,100906.22
2019-05-17T02:45:43.581Z,100904.30
2019-05-17T02:48:13.558Z,100908.68
2019-05-17T02:50:47.780Z,100901.94
2019-05-17T02:53:15.323Z,100904.44
2019-05-17T02:55:44.615Z,100900.09
2019-05-17T02:58:13.939Z,100902.91
2019-05-17T03:00:44.789Z,100902.13
2019-05-17T03:03:14.087Z,100897.39
2019-05-17T03:05:43.693Z,100900.73
2019-05-17T03:08:12.987Z,100897.53
2019-05-17T03:10:43.226Z,100895.80
2019-05-17T03:13:15.355Z,100899.20
2019-05-17T03:15:43.737Z,100899.01
2019-05-17T03:18:13.600Z,100896.45
2019-05-17T03:20:43.420Z,100897.89
2019-05-17T03:23:12.915Z,100896.16
2019-05-17T03:25:44.081Z,100898.36
2019-05-17T03:28:13.577Z,100893.77
2019-05-17T03:30:46.786Z,100887.64
2019-05-17T03:33:16.431Z,100890.81
2019-05-17T03:35:47.858Z,100885.55
2019-05-17T03:38:17.151Z,100884.80
2019-05-17T03:41:07.473Z,100879.47
2019-05-17T03:43:17.494Z,100884.59
2019-05-17T03:45:46.925Z,100879.47
2019-05-17T03:48:16.324Z,100877.13
2019-05-17T03:50:45.604Z,100873.28
2019-05-17T03:53:14.918Z,100874.31
2019-05-17T03:55:44.192Z,100872.78
2019-05-17T03:58:13.557Z,100869.66
2019-05-17T04:00:43.047Z,100870.55
2019-05-17T04:03:13.565Z,100871.55
2019-05-17T04:05:43.296Z,100867.77
2019-05-17T04:08:13.943Z,100868.19
2019-05-17T04:10:43.606Z,100869.52
2019-05-17T04:13:13.205Z,100869.60
2019-05-17T04:15:43.354Z,100872.95
2019-05-17T04:18:13.342Z,100867.77
2019-05-17T04:20:43.778Z,100867.20
2019-05-17T04:23:13.211Z,100867.16
2019-05-17T04:25:43.506Z,100861.11
2019-05-17T04:28:13.819Z,100868.46
2019-05-17T04:30:43.590Z,100863.05
2019-05-17T04:33:13.090Z,100866.66
2019-05-17T04:35:43.244Z,100857.67
2019-05-17T04:38:12.997Z,100857.26
2019-05-17T04:40:43.144Z,100854.75
2019-05-17T04:43:13.550Z,100862.64
2019-05-17T04:45:43.297Z,100862.89
2019-05-17T04:48:13.373Z,100867.57
2019-05-17T04:50:43.096Z,100866.66
2019-05-17T04:53:13.389Z,100868.07
2019-05-17T04:55:43.345Z,100864.09
2019-05-17T04:58:13.680Z,100861.52
2019-05-17T05:00:43.272Z,100867.52
2019-05-17T05:03:12.899Z,100864.92
2019-05-17T05:05:42.930Z,100864.03
2019-05-17T05:08:12.982Z,100862.83
2019-05-17T05:10:44.189Z,100871.89
2019-05-17T05:13:13.578Z,100864.03
2019-05-17T05:15:44.593Z,100866.59
2019-05-17T05:18:14.258Z,100866.53
2019-05-17T05:20:44.069Z,100868.83
2019-05-17T05:23:13.654Z,100867.23
2019-05-17T05:25:43.456Z,100867.56
2019-05-17T05:28:12.938Z,100864.64
2019-05-17T05:30:43.728Z,100856.07
2019-05-17T05:33:13.258Z,100865.80
2019-05-17T05:35:42.903Z,100865.83
2019-05-17T05:38:13.275Z,100858.95
2019-05-17T05:40:43.829Z,100867.66
2019-05-17T05:43:13.777Z,100869.19
2019-05-17T05:45:43.077Z,100870.91
2019-05-17T05:48:13.272Z,100867.51
2019-05-17T05:50:43.952Z,100869.94
2019-05-17T05:53:13.422Z,100870.14
2019-05-17T05:55:43.319Z,100868.03
2019-05-17T05:58:12.986Z,100864.34
2019-05-17T06:00:42.942Z,100874.33
2019-05-17T06:03:12.542Z,100879.16
2019-05-17T06:05:42.562Z,100882.05
2019-05-17T06:08:13.195Z,100875.50
2019-05-17T06:10:43.026Z,100868.59
2019-05-17T06:13:13.461Z,100874.66
2019-05-17T06:15:43.198Z,100862.02
2019-05-17T06:18:12.765Z,100868.72
2019-05-17T06:20:42.224Z,100868.14
2019-05-17T06:23:12.179Z,100869.92
2019-05-17T06:25:43.449Z,100870.72
2019-05-17T06:28:12.848Z,100878.21
2019-05-17T06:30:43.114Z,100881.97
2019-05-17T06:33:26.653Z,100874.86
2019-05-17T06:35:43.614Z,100880.39
2019-05-17T06:38:13.189Z,100876.88
2019-05-17T06:40:42.461Z,100873.34
2019-05-17T06:43:13.145Z,100871.61
2019-05-17T06:45:42.654Z,100872.20
2019-05-17T06:48:12.091Z,100874.02
2019-05-17T06:50:42.824Z,100872.39
2019-05-17T06:53:12.767Z,100866.42
2019-05-17T06:55:42.611Z,100867.78
2019-05-17T06:58:12.409Z,100870.80
2019-05-17T07:00:41.858Z,100867.22
2019-05-17T07:03:12.694Z,100864.05
2019-05-17T07:05:46.347Z,100870.13
2019-05-17T07:08:15.678Z,100866.77
2019-05-17T07:10:44.966Z,100867.06
2019-05-17T07:13:14.375Z,100866.38
2019-05-17T07:15:47.814Z,100867.34
2019-05-17T07:18:14.663Z,100859.30
2019-05-17T07:20:43.953Z,100861.31
2019-05-17T07:23:13.248Z,100855.14
2019-05-17T07:25:42.557Z,100852.47
2019-05-17T07:28:11.867Z,100856.84
2019-05-17T07:30:41.193Z,100851.34
2019-05-17T07:33:10.544Z,100852.24
2019-05-17T07:35:40.069Z,100852.47
2019-05-17T07:38:10.614Z,100846.77
2019-05-17T07:40:40.250Z,100841.80
2019-05-17T07:43:14.372Z,100839.92
2019-05-17T07:45:41.129Z,100832.45
2019-05-17T07:48:10.518Z,100834.28
2019-05-17T07:50:40.116Z,100831.98
2019-05-17T07:53:10.383Z,100831.54
2019-05-17T07:55:40.187Z,100825.34
2019-05-17T07:58:10.220Z,100828.02
2019-05-17T08:00:40.318Z,100829.53
2019-05-17T08:03:12.995Z,100824.70
2019-05-17T08:05:40.827Z,100827.51
2019-05-17T08:08:10.427Z,100823.30
2019-05-17T08:10:41.289Z,100819.80
2019-05-17T08:13:25.156Z,100812.81
2019-05-17T08:15:41.698Z,100811.58
2019-05-17T08:18:11.224Z,100801.92
2019-05-17T08:20:40.675Z,100806.94
2019-05-17T08:23:11.531Z,100804.94
2019-05-17T08:25:52.143Z,100802.84
2019-05-17T08:28:11.941Z,100795.73
2019-05-17T08:30:41.475Z,100789.87
2019-05-17T08:33:11.788Z,100788.47
2019-05-17T08:35:41.116Z,100786.03
2019-05-17T08:38:10.750Z,100784.64
2019-05-17T08:40:40.727Z,100775.46
2019-05-17T08:43:11.238Z,100776.86
2019-05-17T08:45:41.049Z,100768.94
2019-05-17T08:48:10.409Z,100769.59
2019-05-17T08:50:40.538Z,100775.31
2019-05-17T08:53:10.848Z,100771.36
2019-05-17T08:55:41.246Z,100769.05
2019-05-17T08:58:10.764Z,100775.20
2019-05-17T09:00:41.159Z,100771.96
2019-05-17T09:03:11.528Z,100768.36
2019-05-17T09:05:41.770Z,100768.95
2019-05-17T09:08:12.415Z,100767.32
2019-05-17T09:10:41.841Z,100769.78
2019-05-17T09:13:14.543Z,100768.13
2019-05-17T09:15:42.946Z,100764.34
2019-05-17T09:18:12.323Z,100758.09
2019-05-17T09:20:41.613Z,100761.51
2019-05-17T09:23:12.002Z,100755.81
2019-05-17T09:25:41.307Z,100754.05
2019-05-17T09:28:11.378Z,100752.47
2019-05-17T09:30:40.855Z,100749.39
2019-05-17T09:33:11.285Z,100744.22
2019-05-17T09:35:41.200Z,100746.97
2019-05-17T09:38:11.026Z,100737.88
2019-05-17T09:40:40.545Z,100743.55
2019-05-17T09:43:10.515Z,100741.88
2019-05-17T09:45:40.736Z,100741.95
2019-05-17T09:48:10.693Z,100750.13
2019-05-17T09:50:40.280Z,100737.73
2019-05-17T09:53:10.749Z,100738.57
2019-05-17T09:55:40.533Z,100728.14
2019-05-17T09:58:10.904Z,100734.88
2019-05-17T10:00:40.235Z,100729.55
2019-05-17T10:03:09.967Z,100725.23
2019-05-17T10:05:40.569Z,100727.47
2019-05-17T10:08:11.036Z,100732.07
2019-05-17T10:10:40.559Z,100729.64
2019-05-17T10:13:10.999Z,100733.84
2019-05-17T10:15:41.007Z,100731.89
2019-05-17T10:18:11.568Z,100731.55
2019-05-17T10:20:40.876Z,100730.98
2019-05-17T10:23:11.227Z,100719.78
2019-05-17T10:25:40.585Z,100727.16
2019-05-17T10:28:10.266Z,100719.94
2019-05-17T10:30:40.119Z,100716.84
2019-05-17T10:33:10.162Z,100713.52
2019-05-17T10:35:40.573Z,100711.83
2019-05-17T10:38:10.633Z,100709.98
2019-05-17T10:40:41.145Z,100707.09
2019-05-17T10:43:10.612Z,100702.60
2019-05-17T10:45:40.401Z,100707.10
2019-05-17T10:48:10.488Z,100703.34
2019-05-17T10:50:40.724Z,100696.78
2019-05-17T10:53:10.473Z,100698.78
2019-05-17T10:55:40.250Z,100700.86
2019-05-17T10:58:10.172Z,100702.16
2019-05-17T11:00:41.474Z,100699.28
2019-05-17T11:03:11.271Z,100702.44
2019-05-17T11:05:40.602Z,100702.04
2019-05-17T11:08:10.795Z,100698.46
2019-05-17T11:10:40.315Z,100698.61
2019-05-17T11:13:11.168Z,100696.98
2019-05-17T11:15:41.541Z,100699.34
2019-05-17T11:18:10.948Z,100691.24
2019-05-17T11:20:40.254Z,100699.94
2019-05-17T11:23:09.550Z,100703.83
2019-05-17T11:25:44.922Z,100705.94
2019-05-17T11:28:09.881Z,100707.02
2019-05-17T11:30:39.195Z,100703.33
2019-05-17T11:33:08.572Z,100700.77
2019-05-17T11:35:37.889Z,100703.91
2019-05-17T11:38:07.182Z,100705.16
2019-05-17T11:40:36.628Z,100703.75
2019-05-17T11:43:05.925Z,100708.45
2019-05-17T11:45:35.248Z,100703.30
2019-05-17T11:48:04.529Z,100702.06
2019-05-17T11:50:33.826Z,100695.55
2019-05-17T11:53:03.122Z,100701.27
2019-05-17T11:55:32.441Z,100694.75
2019-05-17T11:58:01.726Z,100694.98
2019-05-17T12:00:31.541Z,100698.64
2019-05-17T12:03:00.911Z,100691.67
2019-05-17T12:05:30.409Z,100700.98
2019-05-17T12:08:00.874Z,100696.28
2019-05-17T12:10:31.475Z,100691.24
2019-05-17T12:13:00.891Z,100692.22
2019-05-17T12:15:44.492Z,100695.70
2019-05-17T12:18:02.252Z,100696.93
2019-05-17T12:20:31.576Z,100694.98
2019-05-17T12:23:00.863Z,100699.05
2019-05-17T12:25:30.170Z,100694.94
2019-05-17T12:27:59.469Z,100691.33
2019-05-17T12:30:28.875Z,100688.14
2019-05-17T12:32:58.171Z,100690.27
2019-05-17T12:35:27.489Z,100690.77
2019-05-17T12:37:56.772Z,100686.86
2019-05-17T12:40:27.649Z,100689.37
2019-05-17T12:42:56.963Z,100689.57
2019-05-17T12:45:26.284Z,100693.08
2019-05-17T12:47:55.633Z,100685.68
2019-05-17T12:50:24.935Z,100694.89
2019-05-17T12:52:54.239Z,100690.84
2019-05-17T12:55:23.559Z,100688.52
2019-05-17T12:57:52.948Z,100688.80
2019-05-17T13:00:22.792Z,100688.24
2019-05-17T13:02:52.109Z,100693.83
2019-05-17T13:05:22.156Z,100696.64
2019-05-17T13:07:51.455Z,100687.08
2019-05-17T13:10:20.838Z,100691.55
2019-05-17T13:12:50.116Z,100683.48
2019-05-17T13:15:19.504Z,100687.42
2019-05-17T13:17:49.018Z,100686.29
2019-05-17T13:20:18.515Z,100684.78
2019-05-17T13:22:48.560Z,100675.83
2019-05-17T13:25:18.014Z,100682.72
2019-05-17T13:27:47.335Z,100685.97
2019-05-17T13:30:17.086Z,100676.88
2019-05-17T13:32:46.391Z,100682.77
2019-05-17T13:35:16.913Z,100681.33
2019-05-17T13:37:46.312Z,100677.33
2019-05-17T13:40:15.888Z,100679.05
2019-05-17T13:42:45.224Z,100678.14
2019-05-17T13:45:14.879Z,100680.09
2019-05-17T13:47:44.258Z,100679.65
2019-05-17T13:50:14.869Z,100679.93
2019-05-17T13:52:44.202Z,100678.80
2019-05-17T13:55:14.814Z,100672.34
2019-05-17T13:57:44.128Z,100672.92
2019-05-17T14:00:13.759Z,100667.42
2019-05-17T14:02:43.127Z,100670.81
2019-05-17T14:05:12.574Z,100674.59
2019-05-17T14:07:41.957Z,100670.31
2019-05-17T14:10:26.119Z,100670.20
2019-05-17T14:12:45.041Z,100668.64
2019-05-17T14:15:14.499Z,100671.72
2019-05-17T14:17:43.777Z,100674.13
2019-05-17T14:20:13.167Z,100674.22
2019-05-17T14:22:42.450Z,100671.59
2019-05-17T14:25:13.359Z,100669.28
2019-05-17T14:27:42.664Z,100673.34
2019-05-17T14:30:12.295Z,100675.47
2019-05-17T14:32:41.691Z,100671.34
2019-05-17T14:35:11.296Z,100671.79
2019-05-17T14:37:40.726Z,100666.05
2019-05-17T14:40:10.117Z,100668.93
2019-05-17T14:42:39.425Z,100660.91
2019-05-17T14:45:08.950Z,100658.95
2019-05-17T14:47:38.393Z,100662.54
2019-05-17T14:50:07.866Z,100659.64
2019-05-17T14:52:37.155Z,100654.17
2019-05-17T14:55:07.907Z,100655.39
2019-05-17T14:57:37.255Z,100654.06
2019-05-17T15:00:07.645Z,100660.38
2019-05-17T15:02:36.910Z,100658.30
2019-05-17T15:05:06.881Z,100658.59
2019-05-17T15:07:36.248Z,100658.30
2019-05-17T15:10:07.445Z,100661.31
2019-05-17T15:12:36.727Z,100653.95
2019-05-17T15:15:07.687Z,100659.59
2019-05-17T15:17:37.066Z,100654.45
2019-05-17T15:20:06.849Z,100653.93
2019-05-17T15:22:36.207Z,100643.87
2019-05-17T15:25:05.858Z,100650.36
2019-05-17T15:27:35.154Z,100648.29
2019-05-17T15:30:06.343Z,100648.26
2019-05-17T15:32:35.627Z,100637.95
2019-05-17T15:35:06.684Z,100645.64
2019-05-17T15:37:36.033Z,100640.93
2019-05-17T15:40:06.814Z,100637.09
2019-05-17T15:42:44.030Z,100639.17
2019-05-17T15:45:07.454Z,100635.78
2019-05-17T15:47:36.734Z,100640.00
2019-05-17T15:50:07.172Z,100636.58
2019-05-17T15:52:36.535Z,100635.62
2019-05-17T15:55:08.783Z,100637.47
2019-05-17T15:57:38.085Z,100629.59
2019-05-17T16:00:07.889Z,100630.88
2019-05-17T16:02:37.242Z,100627.45
2019-05-17T16:05:06.805Z,100624.84
2019-05-17T16:07:36.090Z,100628.30
2019-05-17T16:10:08.855Z,100626.53
2019-05-17T16:12:39.315Z,100623.84
2019-05-17T16:15:09.029Z,100623.33
2019-05-17T16:17:38.315Z,100616.78
2019-05-17T16:20:16.546Z,100615.64
2019-05-17T16:22:42.107Z,100623.95
2019-05-17T16:25:11.630Z,100617.48
2019-05-17T16:27:40.916Z,100621.34
2019-05-17T16:30:10.594Z,100621.34
2019-05-17T16:32:39.889Z,100621.42
2019-05-17T16:35:11.023Z,100617.84
2019-05-17T16:37:40.344Z,100617.73
2019-05-17T16:40:10.115Z,100616.78
2019-05-17T16:42:39.416Z,100613.69
2019-05-17T16:45:09.166Z,100610.59
2019-05-17T16:47:38.467Z,100609.13
2019-05-17T16:50:08.354Z,100604.34
2019-05-17T16:52:37.642Z,100603.20
2019-05-17T16:55:08.204Z,100610.37
2019-05-17T16:57:37.757Z,100605.59
2019-05-17T17:00:27.930Z,100605.92
2019-05-17T17:02:57.384Z,100602.89
2019-05-17T17:05:26.688Z,100604.30
2019-05-17T17:07:56.242Z,100604.80
2019-05-17T17:10:25.621Z,100603.23
2019-05-17T17:12:54.941Z,100600.77
2019-05-17T17:15:24.305Z,100601.80
2019-05-17T17:17:53.675Z,100600.41
2019-05-17T17:20:23.445Z,100599.37
2019-05-17T17:22:52.977Z,100602.95
2019-05-17T17:25:23.557Z,100598.67
2019-05-17T17:27:52.842Z,100598.93
2019-05-17T17:30:22.221Z,100594.81
2019-05-17T17:32:51.537Z,100593.78
2019-05-17T17:35:20.834Z,100599.63
2019-05-17T17:37:50.181Z,100597.97
2019-05-17T17:40:21.132Z,100592.89
2019-05-17T17:42:51.188Z,100592.02
2019-05-17T17:45:23.405Z,100591.50
2019-05-17T17:47:52.714Z,100591.50
2019-05-17T17:50:22.152Z,100593.85
2019-05-17T17:52:52.060Z,100592.02
2019-05-17T17:55:21.551Z,100596.86
2019-05-17T17:57:50.996Z,100594.66
2019-05-17T18:00:21.122Z,100597.45
2019-05-17T18:02:51.616Z,100601.94
2019-05-17T18:05:20.987Z,100602.38
2019-05-17T18:07:50.540Z,100599.66
2019-05-17T18:10:33.551Z,100599.42
2019-05-17T18:13:02.140Z,100593.39
2019-05-17T18:15:34.469Z,100596.26
2019-05-17T18:18:03.875Z,100593.13
2019-05-17T18:20:34.116Z,100594.16
2019-05-17T18:23:03.420Z,100594.59
2019-05-17T18:25:32.756Z,100590.51
2019-05-17T18:28:02.083Z,100591.72
2019-05-17T18:30:31.445Z,100597.31
2019-05-17T18:33:00.793Z,100591.05
2019-05-17T18:35:30.115Z,100594.09
2019-05-17T18:37:59.423Z,100593.47
2019-05-17T18:40:28.718Z,100594.02
2019-05-17T18:42:58.039Z,100600.38
2019-05-17T18:45:27.415Z,100596.99
2019-05-17T18:47:58.637Z,100601.96
2019-05-17T18:50:28.358Z,100603.10
2019-05-17T18:52:57.846Z,100606.25
2019-05-17T18:55:27.127Z,100607.03
2019-05-17T18:57:56.532Z,100605.73
2019-05-17T19:00:25.934Z,100611.31
2019-05-17T19:02:55.263Z,100605.55
2019-05-17T19:05:24.589Z,100607.97
2019-05-17T19:07:55.024Z,100600.74
2019-05-17T19:10:24.662Z,100609.19
2019-05-17T19:12:53.976Z,100601.34
2019-05-17T19:15:23.471Z,100609.47
2019-05-17T19:17:52.810Z,100607.89
2019-05-17T19:20:22.322Z,100604.84
2019-05-17T19:22:51.765Z,100607.80
2019-05-17T19:25:21.325Z,100612.08
2019-05-17T19:27:50.691Z,100614.75
2019-05-17T19:30:20.166Z,100615.63
2019-05-17T19:32:49.456Z,100612.30
2019-05-17T19:35:18.961Z,100616.69
2019-05-17T19:37:48.261Z,100613.33
2019-05-17T19:40:17.639Z,100613.77
2019-05-17T19:42:46.944Z,100616.31
2019-05-17T19:45:16.847Z,100611.41
2019-05-17T19:47:46.189Z,100615.44
2019-05-17T19:50:15.761Z,100622.05
2019-05-17T19:52:45.086Z,100626.24
2019-05-17T19:55:15.710Z,100615.78
2019-05-17T19:57:45.037Z,100625.19
2019-05-17T20:00:15.357Z,100630.86
2019-05-17T20:02:45.100Z,100628.69
2019-05-17T20:05:14.623Z,100629.28
2019-05-17T20:07:43.968Z,100625.18
2019-05-17T20:10:13.488Z,100621.77
2019-05-17T20:12:42.865Z,100616.61
2019-05-17T20:15:17.938Z,100619.30
2019-05-17T20:17:43.763Z,100613.72
2019-05-17T20:20:13.557Z,100618.34
2019-05-17T20:22:42.878Z,100619.20
2019-05-17T20:25:12.720Z,100617.28
2019-05-17T20:27:42.026Z,100618.67
2019-05-17T20:30:12.056Z,100624.40
2019-05-17T20:32:41.356Z,100620.70
2019-05-17T20:35:10.913Z,100620.87
2019-05-17T20:37:40.286Z,100612.02
2019-05-17T20:40:10.130Z,100621.33
2019-05-17T20:42:39.728Z,100611.27
2019-05-17T20:45:09.949Z,100610.44
2019-05-17T20:47:39.335Z,100609.36
2019-05-17T20:50:09.367Z,100610.22
2019-05-17T20:52:38.730Z,100609.63
2019-05-17T20:55:08.276Z,100612.16
2019-05-17T20:57:37.606Z,100613.06
2019-05-17T21:00:08.750Z,100611.78
2019-05-17T21:02:38.163Z,100615.70
2019-05-17T21:05:07.704Z,100616.73
2019-05-17T21:07:37.058Z,100615.03
2019-05-17T21:10:06.524Z,100608.23
2019-05-17T21:12:35.835Z,100608.67
2019-05-17T21:15:06.848Z,100609.39
2019-05-17T21:17:36.132Z,100609.87
2019-05-17T21:20:06.784Z,100600.54
2019-05-17T21:22:36.241Z,100602.80
2019-05-17T21:25:06.381Z,100605.72
2019-05-17T21:27:35.752Z,100598.58
2019-05-17T21:30:06.905Z,100596.11
2019-05-17T21:32:36.252Z,100603.37
2019-05-17T21:35:05.907Z,100603.02
2019-05-17T21:37:35.800Z,100596.91
2019-05-17T21:40:10.687Z,100603.66
2019-05-17T21:42:39.967Z,100602.07
2019-05-17T21:45:10.440Z,100602.26
2019-05-17T21:47:39.733Z,100600.09
2019-05-17T21:50:10.551Z,100594.20
2019-05-17T21:52:39.834Z,100597.47
2019-05-17T21:55:09.524Z,100596.93
2019-05-17T21:57:38.807Z,100596.81
2019-05-17T22:00:10.918Z,100598.09
2019-05-17T22:02:41.814Z,100598.16
2019-05-17T22:05:11.473Z,100602.97
2019-05-17T22:07:41.853Z,100597.09
2019-05-17T22:10:11.433Z,100596.73
2019-05-17T22:12:40.819Z,100594.80
2019-05-17T22:15:10.292Z,100594.06
2019-05-17T22:17:39.595Z,100601.70
2019-05-17T22:20:08.946Z,100603.56
2019-05-17T22:22:38.257Z,100601.81
2019-05-17T22:25:07.729Z,100596.55
2019-05-17T22:27:37.064Z,100598.09
2019-05-17T22:30:07.321Z,100595.61
2019-05-17T22:32:37.599Z,100597.07
2019-05-17T22:35:07.059Z,100599.66
2019-05-17T22:37:36.358Z,100596.09
2019-05-17T22:40:08.881Z,100595.36
2019-05-17T22:42:39.513Z,100597.78
2019-05-17T22:45:09.478Z,100593.41
2019-05-17T22:47:38.773Z,100596.27
2019-05-17T22:50:08.482Z,100590.56
2019-05-17T22:52:37.809Z,100588.53
2019-05-17T22:55:07.498Z,100596.58
2019-05-17T22:57:36.821Z,100592.27
2019-05-17T23:00:08.004Z,100594.50
2019-05-17T23:02:38.206Z,100589.39
2019-05-17T23:05:07.414Z,100584.66
2019-05-17T23:07:36.721Z,100587.30
2019-05-17T23:10:07.651Z,100587.95
2019-05-17T23:12:36.929Z,100586.98
2019-05-17T23:15:08.026Z,100584.05
2019-05-17T23:17:37.389Z,100582.91
2019-05-17T23:20:07.253Z,100580.86
2019-05-17T23:22:36.533Z,100578.63
2019-05-17T23:25:08.730Z,100577.22
2019-05-17T23:27:38.009Z,100573.47
2019-05-17T23:30:07.586Z,100576.00
2019-05-17T23:32:36.855Z,100569.05
2019-05-17T23:35:07.320Z,100569.52
2019-05-17T23:37:36.575Z,100573.73
2019-05-17T23:40:06.759Z,100580.13
2019-05-17T23:42:36.030Z,100573.39
2019-05-17T23:45:08.453Z,100574.58
2019-05-17T23:47:37.735Z,100575.78
2019-05-17T23:50:08.879Z,100572.27
2019-05-17T23:52:38.150Z,100569.09
2019-05-17T23:55:08.489Z,100569.19
2019-05-17T23:57:37.769Z,100573.94
